Погода Михейковона неделю

Могилёвская область, Белоруссия

24 - 30 мая
  • 24мая
    Сегодня
    +10°
    +22°
    Ясно и безоблачно
    ВремяПогодаТемператураВлажностьДавлениеВетер, м/сВероятность осадков
    00:00Облачно с прояснениями+15°C56 %752 мм4.4 м/с2 %
    03:00Небольшая облачность+13°C63 %752 мм4.0 м/с2 %
    06:00Ясно и безоблачно+11°C64 %753 мм4.3 м/с2 %
    09:00Ясно и безоблачно+15°C55 %754 мм4.7 м/с2 %
    12:00Ясно и безоблачно+20°C45 %754 мм4.8 м/с2 %
    15:00Ясно и безоблачно+21°C40 %754 мм4.7 м/с2 %
    18:00Ясно и безоблачно+21°C42 %753 мм4.3 м/с2 %
    21:00Ясно и безоблачно+17°C58 %753 мм3.3 м/с2 %
  • 25мая
    Суббота
    +11°
    +24°
    Ясно и безоблачно
    ВремяПогодаТемператураВлажностьДавлениеВетер, м/сВероятность осадков
    00:00Ясно и безоблачно+13°C61 %753 мм3.5 м/с2 %
    03:00Ясно и безоблачно+12°C66 %753 мм3.3 м/с2 %
    06:00Ясно и безоблачно+11°C69 %753 мм3.2 м/с2 %
    09:00Ясно и безоблачно+17°C61 %753 мм3.0 м/с2 %
    12:00Ясно и безоблачно+22°C49 %753 мм3.0 м/с2 %
    15:00Ясно и безоблачно+23°C41 %752 мм2.9 м/с2 %
    18:00Практически безоблачно+23°C42 %751 мм2.4 м/с2 %
    21:00Ясно и безоблачно+19°C60 %751 мм2.7 м/с2 %
  • 26мая
    Воскресенье
    +13°
    +25°
    Небольшая облачность
    ВремяПогодаТемператураВлажностьДавлениеВетер, м/сВероятность осадков
    00:00Ясно и безоблачно+15°C63 %751 мм2.5 м/с2 %
    03:00Ясно и безоблачно+12°C74 %751 мм2.6 м/с2 %
    06:00Практически безоблачно+13°C77 %751 мм1.7 м/с2 %
    09:00Практически безоблачно+19°C51 %752 мм0.8 м/с2 %
    12:00Облачно с прояснениями+23°C39 %752 мм0.7 м/с2 %
    15:00Небольшая облачность+24°C34 %751 мм2.0 м/с2 %
    18:00Небольшая облачность+24°C38 %750 мм1.2 м/с2 %
    21:00Ясно и безоблачно+19°C62 %750 мм2.2 м/с2 %
  • 27мая
    Понедельник
    +13°
    +26°
    Практически безоблачно
    ВремяПогодаТемператураВлажностьДавлениеВетер, м/сВероятность осадков
    00:00Ясно и безоблачно+16°C66 %750 мм2.3 м/с2 %
    03:00Ясно и безоблачно+14°C77 %751 мм2.3 м/с2 %
    06:00Ясно и безоблачно+14°C79 %751 мм2.8 м/с2 %
    09:00Ясно и безоблачно+20°C69 %752 мм2.3 м/с2 %
    12:00Ясно и безоблачно+24°C51 %752 мм2.9 м/с13 %
    15:00Практически безоблачно+25°C49 %751 мм2.2 м/с23 %
    18:00Небольшая облачность+25°C56 %751 мм2.3 м/с41 %
    21:00Практически безоблачно+20°C74 %751 мм2.8 м/с13 %
  • 28мая
    Вторник
    +13°
    +24°
    Ясно и безоблачно
    ВремяПогодаТемператураВлажностьДавлениеВетер, м/сВероятность осадков
    00:00Ясно и безоблачно+17°C82 %751 мм3.0 м/с2 %
    03:00Ясно и безоблачно+15°C88 %751 мм2.8 м/с2 %
    06:00Практически безоблачно+14°C71 %751 мм3.7 м/с3 %
    09:00Практически безоблачно+19°C61 %752 мм2.9 м/с2 %
    12:00Ясно и безоблачно+23°C46 %752 мм3.5 м/с5 %
    15:00Ясно и безоблачно+23°C42 %751 мм3.1 м/с8 %
    18:00Ясно и безоблачно+23°C42 %750 мм3.0 м/с10 %
    21:00Ясно и безоблачно+19°C61 %749 мм2.1 м/с4 %
Мы используем cookies
Соглашаюсь